Time;durP1;ratioP1;P1;durP2;ratioP2;P2;SDS_P1;SDS_P2;PMS_P1;PMS_P2;Temp;Humidity;BMP_temperature;BMP_pressure;BME280_temperature;BME280_humidity;BME280_pressure;Samples;Min_cycle;Max_cycle;Signal;HPM_P1;HPM_P2
2022/07/11 00:01:00;;;;;;;;;4.00;3.33;;;;;;;;5092202;27;45655;-70
2022/07/11 00:03:25;;;;;;;;;2.00;2.00;;;;;;;;5093815;27;45412;-69
2022/07/11 00:05:50;;;;;;;;;2.00;2.00;;;;;;;;5094627;27;45462;-70
2022/07/11 00:08:15;;;;;;;;;1.67;1.67;;;;;;;;5092758;27;45386;-70
2022/07/11 00:10:41;;;;;;;;;1.67;1.67;;;;;;;;5091451;27;45389;-70
2022/07/11 00:13:06;;;;;;;;;2.33;2.33;;;;;;;;5091986;27;45571;-71
2022/07/11 00:15:31;;;;;;;;;2.00;1.67;;;;;;;;5093954;27;45401;-69
2022/07/11 00:17:57;;;;;;;;;4.00;2.67;;;;;;;;5097760;27;46319;-70
2022/07/11 00:20:22;;;;;;;;;1.00;1.00;;;;;;;;5096416;27;45494;-70
2022/07/11 00:22:47;;;;;;;;;2.00;1.67;;;;;;;;5095283;27;45382;-70
2022/07/11 00:25:12;;;;;;;;;2.33;1.67;;;;;;;;5095390;27;45323;-70
2022/07/11 00:27:37;;;;;;;;;2.67;2.00;;;;;;;;5094075;27;45981;-70
2022/07/11 00:30:03;;;;;;;;;2.33;2.33;;;;;;;;5097238;27;45434;-70
2022/07/11 00:32:28;;;;;;;;;1.00;1.00;;;;;;;;5097170;27;45516;-70
2022/07/11 00:34:53;;;;;;;;;1.67;1.67;;;;;;;;5095024;27;45456;-70
2022/07/11 00:37:19;;;;;;;;;2.00;1.33;;;;;;;;5094722;27;46323;-70
2022/07/11 00:39:44;;;;;;;;;2.00;2.00;;;;;;;;5095332;27;45455;-70
2022/07/11 00:42:10;;;;;;;;;2.00;2.00;;;;;;;;5096493;27;45514;-70
2022/07/11 00:44:36;;;;;;;;;2.00;2.00;;;;;;;;5097723;27;46124;-70
2022/07/11 00:47:01;;;;;;;;;3.00;1.67;;;;;;;;5095097;27;46452;-70
2022/07/11 00:49:26;;;;;;;;;2.00;2.00;;;;;;;;5094697;27;45435;-70
2022/07/11 00:51:51;;;;;;;;;2.00;2.00;;;;;;;;5094942;27;45616;-70
2022/07/11 00:54:18;;;;;;;;;1.00;1.00;;;;;;;;5096936;27;45367;-70
2022/07/11 00:56:44;;;;;;;;;1.00;1.00;;;;;;;;5094214;27;47852;-70
2022/07/11 00:59:09;;;;;;;;;2.67;2.00;;;;;;;;5095488;27;45341;-70
2022/07/11 01:01:37;;;;;;;;;2.33;1.33;;;;;;;;5094552;27;45436;-70
2022/07/11 01:04:03;;;;;;;;;1.67;1.67;;;;;;;;5094541;27;45825;-69
2022/07/11 01:06:28;;;;;;;;;1.00;1.00;;;;;;;;5094299;27;45454;-70
2022/07/11 01:08:53;;;;;;;;;1.00;1.00;;;;;;;;5097300;27;45400;-70
2022/07/11 01:11:18;;;;;;;;;2.00;2.00;;;;;;;;5095938;27;45519;-70
2022/07/11 01:13:45;;;;;;;;;1.00;1.00;;;;;;;;5094592;27;45413;-70
2022/07/11 01:16:12;;;;;;;;;2.00;1.33;;;;;;;;5094273;27;45520;-70
2022/07/11 01:18:37;;;;;;;;;1.00;1.00;;;;;;;;5095647;27;45303;-70
2022/07/11 01:21:06;;;;;;;;;0.33;0.33;;;;;;;;5096473;27;45341;-70
2022/07/11 01:23:31;;;;;;;;;1.00;1.00;;;;;;;;5096621;27;45672;-70
2022/07/11 01:25:57;;;;;;;;;1.00;1.00;;;;;;;;5093348;27;46461;-70
2022/07/11 01:28:22;;;;;;;;;2.33;2.33;;;;;;;;5094165;27;45449;-70
2022/07/11 01:30:47;;;;;;;;;2.00;2.00;;;;;;;;5095451;27;45472;-72
2022/07/11 01:33:12;;;;;;;;;1.00;1.00;;;;;;;;5095115;27;45440;-70
2022/07/11 01:35:38;;;;;;;;;1.33;1.33;;;;;;;;5097784;27;47124;-70
2022/07/11 01:38:03;;;;;;;;;1.00;1.00;;;;;;;;5095592;27;45527;-70
2022/07/11 01:40:29;;;;;;;;;1.00;1.00;;;;;;;;5093862;27;45472;-70
2022/07/11 01:42:54;;;;;;;;;2.67;2.33;;;;;;;;5094512;27;45495;-70
2022/07/11 01:45:19;;;;;;;;;1.00;1.00;;;;;;;;5093691;27;46430;-70
2022/07/11 01:47:44;;;;;;;;;2.00;2.00;;;;;;;;5097771;27;45283;-70
2022/07/11 01:50:10;;;;;;;;;1.00;1.00;;;;;;;;5094013;27;45228;-70
2022/07/11 01:52:35;;;;;;;;;1.33;1.33;;;;;;;;5093930;27;45310;-70
2022/07/11 01:55:00;;;;;;;;;2.00;2.00;;;;;;;;5093638;27;46495;-70
2022/07/11 01:57:25;;;;;;;;;1.00;1.00;;;;;;;;5094792;27;45466;-70
2022/07/11 01:59:50;;;;;;;;;3.00;1.00;;;;;;;;5096799;27;45380;-69
2022/07/11 02:02:16;;;;;;;;;3.33;2.00;;;;;;;;5094716;27;45192;-70
2022/07/11 02:04:41;;;;;;;;;1.00;1.00;;;;;;;;5093553;27;46324;-70
2022/07/11 02:07:06;;;;;;;;;1.00;1.00;;;;;;;;5093722;27;45347;-70
2022/07/11 02:09:32;;;;;;;;;2.00;2.00;;;;;;;;5094123;27;45428;-70
2022/07/11 02:11:57;;;;;;;;;1.00;1.00;;;;;;;;5096034;27;45466;-70
2022/07/11 02:14:22;;;;;;;;;1.00;1.00;;;;;;;;5094352;27;46433;-70
2022/07/11 02:16:47;;;;;;;;;1.67;1.67;;;;;;;;5093647;27;46880;-70
2022/07/11 02:19:12;;;;;;;;;1.00;1.00;;;;;;;;5093357;27;45410;-70
2022/07/11 02:21:38;;;;;;;;;2.00;2.00;;;;;;;;5094020;27;45509;-69
2022/07/11 02:24:03;;;;;;;;;1.33;1.33;;;;;;;;5095287;27;46078;-70
2022/07/11 02:26:29;;;;;;;;;2.00;1.00;;;;;;;;5095064;27;45560;-69
2022/07/11 02:28:54;;;;;;;;;1.00;1.00;;;;;;;;5093232;27;45435;-70
2022/07/11 02:31:19;;;;;;;;;1.00;1.00;;;;;;;;5093339;27;45365;-70
2022/07/11 02:33:45;;;;;;;;;2.00;2.00;;;;;;;;5093020;27;45441;-70
2022/07/11 02:36:10;;;;;;;;;1.00;1.00;;;;;;;;5094378;27;45528;-70
2022/07/11 02:38:35;;;;;;;;;1.00;1.00;;;;;;;;5096038;27;45432;-70
2022/07/11 02:41:00;;;;;;;;;1.33;1.33;;;;;;;;5095521;27;45447;-70
2022/07/11 02:43:27;;;;;;;;;2.33;1.67;;;;;;;;5099288;27;46465;-70
2022/07/11 02:45:53;;;;;;;;;1.00;1.00;;;;;;;;5092862;27;45512;-70
2022/07/11 02:48:18;;;;;;;;;2.00;2.00;;;;;;;;5093413;27;45334;-70
2022/07/11 02:50:43;;;;;;;;;1.00;1.00;;;;;;;;5096914;27;45347;-70
2022/07/11 02:53:09;;;;;;;;;1.00;1.00;;;;;;;;5092744;27;46285;-70
2022/07/11 02:55:34;;;;;;;;;1.00;1.00;;;;;;;;5092985;27;45512;-70
2022/07/11 02:57:59;;;;;;;;;1.00;1.00;;;;;;;;5093410;27;45535;-70
2022/07/11 03:00:24;;;;;;;;;1.33;1.00;;;;;;;;5093044;27;45499;-70
2022/07/11 03:02:50;;;;;;;;;1.67;1.67;;;;;;;;5096351;27;46279;-70
2022/07/11 03:05:15;;;;;;;;;1.00;1.00;;;;;;;;5093205;27;45445;-70
2022/07/11 03:07:40;;;;;;;;;2.00;2.00;;;;;;;;5093034;27;45457;-70
2022/07/11 03:10:05;;;;;;;;;1.67;1.67;;;;;;;;5094720;27;45463;-70
2022/07/11 03:12:31;;;;;;;;;1.33;1.33;;;;;;;;5091981;27;45436;-70
2022/07/11 03:14:56;;;;;;;;;2.67;1.00;;;;;;;;5095181;27;45303;-70
2022/07/11 03:17:21;;;;;;;;;1.00;1.00;;;;;;;;5093911;27;45545;-70
2022/07/11 03:19:47;;;;;;;;;1.00;1.00;;;;;;;;5092541;27;45445;-70
2022/07/11 03:22:12;;;;;;;;;1.00;1.00;;;;;;;;5092688;27;47510;-70
2022/07/11 03:24:37;;;;;;;;;1.00;1.00;;;;;;;;5092444;27;45542;-70
2022/07/11 03:27:03;;;;;;;;;1.00;1.00;;;;;;;;5094409;27;45310;-70
2022/07/11 03:29:28;;;;;;;;;1.00;1.00;;;;;;;;5094162;27;45425;-70
2022/07/11 03:31:53;;;;;;;;;2.67;1.00;;;;;;;;5092314;27;45550;-70
2022/07/11 03:34:18;;;;;;;;;1.00;1.00;;;;;;;;5092592;27;45416;-70
2022/07/11 03:36:46;;;;;;;;;0.00;0.00;;;;;;;;5092265;27;46672;-70
2022/07/11 03:39:11;;;;;;;;;1.67;1.67;;;;;;;;5093348;27;45627;-70
2022/07/11 03:41:36;;;;;;;;;2.00;2.00;;;;;;;;5094457;27;45555;-70
2022/07/11 03:44:01;;;;;;;;;2.00;2.00;;;;;;;;5092050;27;45532;-70
2022/07/11 03:46:26;;;;;;;;;2.00;2.00;;;;;;;;5092349;27;45421;-70
2022/07/11 03:48:52;;;;;;;;;0.33;0.33;;;;;;;;5091907;27;45480;-70
2022/07/11 03:51:17;;;;;;;;;2.00;2.00;;;;;;;;5091307;27;46652;-70
2022/07/11 03:53:43;;;;;;;;;1.00;1.00;;;;;;;;5095893;27;45400;-70
2022/07/11 03:56:08;;;;;;;;;1.00;1.00;;;;;;;;5091886;27;45383;-70
2022/07/11 03:58:34;;;;;;;;;1.00;1.00;;;;;;;;5092698;27;45611;-70
2022/07/11 04:00:59;;;;;;;;;2.33;2.33;;;;;;;;5092089;27;45522;-70
2022/07/11 04:03:25;;;;;;;;;1.67;1.67;;;;;;;;5091986;27;45398;-70
2022/07/11 04:05:50;;;;;;;;;4.00;3.00;;;;;;;;5094882;27;45407;-71
2022/07/11 04:08:16;;;;;;;;;1.00;1.00;;;;;;;;5092576;27;45659;-70
2022/07/11 04:10:41;;;;;;;;;1.33;1.33;;;;;;;;5091177;27;46228;-70
2022/07/11 04:13:06;;;;;;;;;1.00;1.00;;;;;;;;5092114;27;45464;-69
2022/07/11 04:15:31;;;;;;;;;1.00;1.00;;;;;;;;5091745;27;45278;-70
2022/07/11 04:17:57;;;;;;;;;1.33;1.33;;;;;;;;5094013;27;45442;-70
2022/07/11 04:20:22;;;;;;;;;3.00;1.00;;;;;;;;5092926;27;45378;-70
2022/07/11 04:22:47;;;;;;;;;1.00;1.00;;;;;;;;5091579;27;45486;-70
2022/07/11 04:25:12;;;;;;;;;1.33;1.33;;;;;;;;5095389;27;45445;-70
2022/07/11 04:27:37;;;;;;;;;1.00;1.00;;;;;;;;5091985;27;45428;-70
2022/07/11 04:30:03;;;;;;;;;1.67;1.67;;;;;;;;5092457;27;46996;-70
2022/07/11 04:32:28;;;;;;;;;1.67;1.67;;;;;;;;5095299;27;45413;-70
2022/07/11 04:34:54;;;;;;;;;1.67;1.00;;;;;;;;5091560;27;45415;-70
2022/07/11 04:37:19;;;;;;;;;1.00;1.00;;;;;;;;5091566;27;45814;-70
2022/07/11 04:39:46;;;;;;;;;1.67;1.00;;;;;;;;5091036;27;46542;-71
2022/07/11 04:42:11;;;;;;;;;2.33;1.33;;;;;;;;5092359;27;45423;-70
2022/07/11 04:44:37;;;;;;;;;1.00;1.00;;;;;;;;5094325;27;45535;-70
2022/07/11 04:47:02;;;;;;;;;1.00;1.00;;;;;;;;5091163;27;45466;-70
2022/07/11 04:49:28;;;;;;;;;1.00;1.00;;;;;;;;5091374;27;46363;-70
2022/07/11 04:51:54;;;;;;;;;2.33;1.00;;;;;;;;5091106;27;45527;-70
2022/07/11 04:54:19;;;;;;;;;1.00;1.00;;;;;;;;5090790;27;45375;-70
2022/07/11 04:56:45;;;;;;;;;2.33;2.33;;;;;;;;5094904;27;45505;-70
2022/07/11 04:59:10;;;;;;;;;1.00;1.00;;;;;;;;5091762;27;45659;-70
2022/07/11 05:01:35;;;;;;;;;1.00;1.00;;;;;;;;5093046;27;45623;-71
2022/07/11 05:04:00;;;;;;;;;2.00;2.00;;;;;;;;5094767;27;45254;-70
2022/07/11 05:06:26;;;;;;;;;1.00;1.00;;;;;;;;5094774;27;45231;-70
2022/07/11 05:08:51;;;;;;;;;1.33;1.33;;;;;;;;5097055;27;46998;-70
2022/07/11 05:11:17;;;;;;;;;1.00;1.00;;;;;;;;5095226;27;45490;-71
2022/07/11 05:13:42;;;;;;;;;2.00;1.00;;;;;;;;5094570;27;45418;-71
2022/07/11 05:16:07;;;;;;;;;1.67;1.67;;;;;;;;5094659;27;45596;-70
2022/07/11 05:18:32;;;;;;;;;1.33;1.33;;;;;;;;5096174;27;46687;-70
2022/07/11 05:20:58;;;;;;;;;1.00;1.00;;;;;;;;5096947;27;45477;-70
2022/07/11 05:23:23;;;;;;;;;1.00;1.00;;;;;;;;5095403;27;45366;-70
2022/07/11 05:25:48;;;;;;;;;1.00;1.00;;;;;;;;5094360;27;49048;-70
2022/07/11 05:28:14;;;;;;;;;1.33;1.33;;;;;;;;5094274;27;46428;-68
2022/07/11 05:30:39;;;;;;;;;1.33;1.33;;;;;;;;5094177;27;45502;-70
2022/07/11 05:33:04;;;;;;;;;1.00;1.00;;;;;;;;5096440;27;45562;-70
2022/07/11 05:35:30;;;;;;;;;0.67;0.67;;;;;;;;5095928;27;45444;-69
2022/07/11 05:37:55;;;;;;;;;2.00;2.00;;;;;;;;5093733;27;46301;-73
2022/07/11 05:40:20;;;;;;;;;1.00;1.00;;;;;;;;5094330;27;45566;-73
2022/07/11 05:42:45;;;;;;;;;1.00;1.00;;;;;;;;5094188;27;45493;-68
2022/07/11 05:45:11;;;;;;;;;2.00;2.00;;;;;;;;5095312;27;47614;-71
2022/07/11 05:47:36;;;;;;;;;3.33;2.67;;;;;;;;5096680;27;46067;-71
2022/07/11 05:50:01;;;;;;;;;3.00;1.67;;;;;;;;5091531;27;45373;-72
2022/07/11 05:52:26;;;;;;;;;4.33;3.33;;;;;;;;5093051;27;45420;-72
2022/07/11 05:54:52;;;;;;;;;3.00;3.00;;;;;;;;5093469;27;45548;-71
2022/07/11 05:57:17;;;;;;;;;3.67;3.00;;;;;;;;5094097;27;45540;-71
2022/07/11 05:59:42;;;;;;;;;3.00;2.00;;;;;;;;5097254;27;45364;-71
2022/07/11 06:02:08;;;;;;;;;3.00;3.00;;;;;;;;5093827;27;45557;-71
2022/07/11 06:04:33;;;;;;;;;5.00;3.00;;;;;;;;5095309;27;45352;-72
2022/07/11 06:06:59;;;;;;;;;3.33;2.33;;;;;;;;5097293;27;45605;-73
2022/07/11 06:09:24;;;;;;;;;3.67;3.67;;;;;;;;5093793;27;45435;-74
2022/07/11 06:11:49;;;;;;;;;2.67;2.67;;;;;;;;5096900;27;45491;-72
2022/07/11 06:14:14;;;;;;;;;4.00;4.00;;;;;;;;5093452;27;45292;-73
2022/07/11 06:16:40;;;;;;;;;4.00;4.00;;;;;;;;5093304;27;47383;-74
2022/07/11 06:19:05;;;;;;;;;3.00;2.33;;;;;;;;5093911;27;45466;-77
2022/07/11 06:21:31;;;;;;;;;2.67;2.67;;;;;;;;5093247;27;45468;-75
2022/07/11 06:23:56;;;;;;;;;4.00;2.00;;;;;;;;5095915;27;45377;-76
2022/07/11 06:26:21;;;;;;;;;3.00;3.00;;;;;;;;5094698;27;46436;-75
2022/07/11 06:28:46;;;;;;;;;3.00;2.67;;;;;;;;5094336;27;45294;-75
2022/07/11 06:31:12;;;;;;;;;2.00;2.00;;;;;;;;5093612;27;45423;-75
2022/07/11 06:33:37;;;;;;;;;2.33;2.33;;;;;;;;5093666;27;45298;-75
2022/07/11 06:36:03;;;;;;;;;1.00;1.00;;;;;;;;5099163;27;46246;-75
2022/07/11 06:38:28;;;;;;;;;2.67;2.67;;;;;;;;5094700;27;45211;-75
2022/07/11 06:40:54;;;;;;;;;1.67;1.67;;;;;;;;5093181;27;46769;-75
2022/07/11 06:43:19;;;;;;;;;1.67;1.67;;;;;;;;5093596;27;45434;-75
2022/07/11 06:45:45;;;;;;;;;2.33;2.00;;;;;;;;5093243;27;45465;-75
2022/07/11 06:48:10;;;;;;;;;2.00;1.33;;;;;;;;5094595;27;45470;-75
2022/07/11 06:50:36;;;;;;;;;2.00;2.00;;;;;;;;5095323;27;45317;-75
2022/07/11 06:53:02;;;;;;;;;1.67;1.67;;;;;;;;5092860;27;45403;-75
2022/07/11 06:55:27;;;;;;;;;4.00;2.33;;;;;;;;5093039;27;46580;-75
2022/07/11 06:57:52;;;;;;;;;2.00;2.00;;;;;;;;5093909;27;45387;-75
2022/07/11 07:00:18;;;;;;;;;2.00;2.00;;;;;;;;5093805;27;45331;-75
2022/07/11 07:02:43;;;;;;;;;4.33;2.67;;;;;;;;5096881;27;45587;-75
2022/07/11 07:05:09;;;;;;;;;2.00;2.00;;;;;;;;5092549;27;45536;-75
2022/07/11 07:07:34;;;;;;;;;2.33;1.33;;;;;;;;5092607;27;45404;-75
2022/07/11 07:10:00;;;;;;;;;4.00;3.00;;;;;;;;5092994;27;45562;-75
2022/07/11 07:12:25;;;;;;;;;4.00;2.00;;;;;;;;5092999;27;45305;-75
2022/07/11 07:14:50;;;;;;;;;2.00;2.00;;;;;;;;5095891;27;45609;-75
2022/07/11 07:17:16;;;;;;;;;4.00;3.67;;;;;;;;5093021;27;45310;-76
2022/07/11 07:19:41;;;;;;;;;3.00;3.00;;;;;;;;5092483;27;45338;-75
2022/07/11 07:22:08;;;;;;;;;1.67;1.67;;;;;;;;5095489;27;45364;-75
2022/07/11 07:24:33;;;;;;;;;4.00;2.33;;;;;;;;5093878;27;50852;-75
2022/07/11 07:26:59;;;;;;;;;3.00;2.00;;;;;;;;5095177;27;46230;-75
2022/07/11 07:29:26;;;;;;;;;1.67;1.67;;;;;;;;5094111;27;45437;-75
2022/07/11 07:31:52;;;;;;;;;2.00;2.00;;;;;;;;5092176;27;45607;-75
2022/07/11 07:34:18;;;;;;;;;2.00;2.00;;;;;;;;5092175;27;46522;-75
2022/07/11 07:36:43;;;;;;;;;2.00;2.00;;;;;;;;5092172;27;45609;-75
2022/07/11 07:39:08;;;;;;;;;2.33;2.33;;;;;;;;5094145;27;45432;-75
2022/07/11 07:41:33;;;;;;;;;1.00;1.00;;;;;;;;5094739;27;45440;-75
2022/07/11 07:43:58;;;;;;;;;1.67;1.67;;;;;;;;5092227;27;46167;-75
2022/07/11 07:46:24;;;;;;;;;4.00;2.00;;;;;;;;5092189;27;45433;-75
2022/07/11 07:48:49;;;;;;;;;1.33;1.33;;;;;;;;5092263;27;45805;-75
2022/07/11 07:51:14;;;;;;;;;1.67;1.00;;;;;;;;5093094;27;45278;-75
2022/07/11 07:53:39;;;;;;;;;2.67;2.00;;;;;;;;5095045;27;46075;-75
2022/07/11 07:56:05;;;;;;;;;4.00;3.00;;;;;;;;5092126;27;45495;-75
2022/07/11 07:58:31;;;;;;;;;2.00;1.67;;;;;;;;5092913;27;45464;-75
2022/07/11 08:03:40;;;;;;;;;2.33;2.33;;;;;;;;5091925;27;45440;-75
2022/07/11 08:06:05;;;;;;;;;1.00;1.00;;;;;;;;5094172;27;45456;-75
2022/07/11 08:08:30;;;;;;;;;3.00;2.00;;;;;;;;5093739;27;45327;-75
2022/07/11 08:10:55;;;;;;;;;0.33;0.33;;;;;;;;5091603;27;45515;-76
2022/07/11 08:13:21;;;;;;;;;2.00;2.00;;;;;;;;5091760;27;46370;-75
2022/07/11 08:18:30;;;;;;;;;2.00;2.00;;;;;;;;5088427;27;45544;-76
2022/07/11 08:20:58;;;;;;;;;3.00;1.67;;;;;;;;5094388;27;45540;-75
2022/07/11 08:23:23;;;;;;;;;2.00;2.00;;;;;;;;5094611;27;46590;-75
2022/07/11 08:25:48;;;;;;;;;2.00;2.00;;;;;;;;5091073;27;46538;-75
2022/07/11 08:28:14;;;;;;;;;0.67;0.67;;;;;;;;5092284;27;45392;-75
2022/07/11 08:30:39;;;;;;;;;2.00;1.00;;;;;;;;5091756;27;45504;-75
2022/07/11 08:33:04;;;;;;;;;1.00;1.00;;;;;;;;5093673;27;45744;-75
2022/07/11 08:35:29;;;;;;;;;2.67;2.67;;;;;;;;5093687;27;45438;-76
2022/07/11 08:37:55;;;;;;;;;1.33;1.00;;;;;;;;5095669;27;45433;-75
2022/07/11 08:40:20;;;;;;;;;1.00;1.00;;;;;;;;5095482;27;45427;-75
2022/07/11 08:42:45;;;;;;;;;1.67;1.67;;;;;;;;5095219;27;46382;-75
2022/07/11 08:45:12;;;;;;;;;2.00;2.00;;;;;;;;5096239;27;45430;-75
2022/07/11 08:47:37;;;;;;;;;2.00;2.00;;;;;;;;5097611;27;45439;-75
2022/07/11 08:50:04;;;;;;;;;2.00;2.00;;;;;;;;5094969;27;45485;-75
2022/07/11 08:52:29;;;;;;;;;1.33;1.33;;;;;;;;5094985;27;45489;-75
2022/07/11 08:57:38;;;;;;;;;1.67;1.67;;;;;;;;5094976;27;45403;-75
2022/07/11 09:00:06;;;;;;;;;1.67;1.67;;;;;;;;5097267;27;45512;-75
2022/07/11 09:02:32;;;;;;;;;1.00;1.00;;;;;;;;5096453;27;46111;-75
2022/07/11 09:04:57;;;;;;;;;2.00;2.00;;;;;;;;5094406;27;45430;-75
2022/07/11 09:07:23;;;;;;;;;1.33;1.33;;;;;;;;5095007;27;45439;-75
2022/07/11 09:09:48;;;;;;;;;1.00;1.00;;;;;;;;5094987;27;45371;-75
2022/07/11 09:12:16;;;;;;;;;2.33;2.33;;;;;;;;5095576;27;46332;-74
2022/07/11 09:14:48;;;;;;;;;2.00;2.00;;;;;;;;5097749;27;45365;-75
2022/07/11 09:17:13;;;;;;;;;2.00;2.00;;;;;;;;5094546;27;45256;-75
2022/07/11 09:19:41;;;;;;;;;1.00;1.00;;;;;;;;5094846;27;45371;-75
2022/07/11 09:25:19;;;;;;;;;2.67;2.00;;;;;;;;5094492;27;45471;-75
2022/07/11 09:27:52;;;;;;;;;3.33;2.67;;;;;;;;5094525;27;45417;-75
2022/07/11 09:30:22;;;;;;;;;3.00;3.00;;;;;;;;5089380;27;45545;-75
2022/07/11 09:32:54;;;;;;;;;0.67;0.67;;;;;;;;5093733;27;45653;-75
2022/07/11 09:35:19;;;;;;;;;1.33;1.33;;;;;;;;5094832;27;45272;-75
2022/07/11 09:37:44;;;;;;;;;2.00;2.00;;;;;;;;5094407;27;45381;-75
2022/07/11 09:40:11;;;;;;;;;1.33;1.33;;;;;;;;5094509;27;45282;-75
2022/07/11 09:42:49;;;;;;;;;1.33;1.33;;;;;;;;5093961;27;46268;-76
2022/07/11 09:51:00;;;;;;;;;1.00;1.00;;;;;;;;5093914;27;45472;-75
2022/07/11 09:53:25;;;;;;;;;2.00;2.00;;;;;;;;5097200;27;47381;-75
2022/07/11 09:55:50;;;;;;;;;2.00;2.00;;;;;;;;5093660;27;45378;-75
2022/07/11 09:58:16;;;;;;;;;2.67;1.00;;;;;;;;5095349;27;45352;-75
2022/07/11 10:00:43;;;;;;;;;2.00;2.00;;;;;;;;5095182;27;45412;-75
2022/07/11 10:03:09;;;;;;;;;1.67;1.67;;;;;;;;5095644;27;46303;-75
2022/07/11 10:05:35;;;;;;;;;1.67;1.67;;;;;;;;5096361;27;45393;-75
2022/07/11 10:08:01;;;;;;;;;2.00;2.00;;;;;;;;5095275;27;45370;-75
2022/07/11 10:10:26;;;;;;;;;1.00;1.00;;;;;;;;5094170;27;45294;-75
2022/07/11 10:12:52;;;;;;;;;2.00;2.00;;;;;;;;5093661;27;46470;-75
2022/07/11 10:15:36;;;;;;;;;1.00;1.00;;;;;;;;5088681;27;45339;-75
2022/07/11 10:18:02;;;;;;;;;1.00;1.00;;;;;;;;5093769;27;45417;-75
2022/07/11 10:20:30;;;;;;;;;1.67;1.67;;;;;;;;5095320;27;45587;-75
2022/07/11 10:23:13;;;;;;;;;2.00;2.00;;;;;;;;5093443;27;45296;-75
2022/07/11 10:25:48;;;;;;;;;1.00;1.00;;;;;;;;5093374;27;45506;-75
2022/07/11 10:28:20;;;;;;;;;1.00;1.00;;;;;;;;5093425;27;45324;-75
2022/07/11 10:30:49;;;;;;;;;3.00;1.00;;;;;;;;5093472;27;45561;-75
2022/07/11 10:33:15;;;;;;;;;1.00;1.00;;;;;;;;5094248;27;45396;-75
2022/07/11 10:35:41;;;;;;;;;1.00;1.00;;;;;;;;5096062;27;45459;-75
2022/07/11 10:38:07;;;;;;;;;1.00;1.00;;;;;;;;5093658;27;45582;-75
2022/07/11 10:40:45;;;;;;;;;1.00;1.00;;;;;;;;5093094;27;45477;-75
2022/07/11 10:43:11;;;;;;;;;1.00;1.00;;;;;;;;5092847;27;45468;-75
2022/07/11 10:46:09;;;;;;;;;3.00;2.00;;;;;;;;5093553;27;45402;-76
2022/07/11 10:48:35;;;;;;;;;1.00;1.00;;;;;;;;5047048;28;45393;-75
2022/07/11 10:51:23;;;;;;;;;1.00;1.00;;;;;;;;5052402;28;45520;-76
2022/07/11 10:53:49;;;;;;;;;2.00;1.00;;;;;;;;5053794;28;45514;-75
2022/07/11 10:56:33;;;;;;;;;1.00;1.00;;;;;;;;5050378;28;45528;-74
2022/07/11 10:59:17;;;;;;;;;1.67;1.67;;;;;;;;5049742;28;45657;-75
2022/07/11 11:02:00;;;;;;;;;1.00;1.00;;;;;;;;5049672;28;45520;-75
2022/07/11 11:04:41;;;;;;;;;1.00;1.00;;;;;;;;5032724;28;46669;-75
2022/07/11 11:07:06;;;;;;;;;1.00;1.00;;;;;;;;5050113;28;45333;-75
2022/07/11 11:09:38;;;;;;;;;0.33;0.33;;;;;;;;5050250;28;45481;-75
2022/07/11 11:12:03;;;;;;;;;1.67;1.67;;;;;;;;5051908;28;45529;-74
2022/07/11 11:14:28;;;;;;;;;1.00;1.00;;;;;;;;5050827;28;46259;-75
2022/07/11 11:16:54;;;;;;;;;1.33;1.33;;;;;;;;5049758;28;45387;-75
2022/07/11 11:19:38;;;;;;;;;1.00;1.00;;;;;;;;5051670;28;45395;-74
2022/07/11 11:22:12;;;;;;;;;2.67;2.67;;;;;;;;5049858;28;45531;-74
2022/07/11 11:24:37;;;;;;;;;2.00;2.00;;;;;;;;5078206;27;46617;-75
2022/07/11 11:27:02;;;;;;;;;1.00;1.00;;;;;;;;5094866;27;45573;-75
2022/07/11 11:29:29;;;;;;;;;1.00;1.00;;;;;;;;5093980;27;45290;-75
2022/07/11 11:31:56;;;;;;;;;1.00;1.00;;;;;;;;5092433;27;45463;-75
2022/07/11 11:34:22;;;;;;;;;1.00;1.00;;;;;;;;5092441;27;46282;-75
2022/07/11 11:36:54;;;;;;;;;1.00;1.00;;;;;;;;5092260;27;45506;-75
2022/07/11 11:39:26;;;;;;;;;1.00;1.00;;;;;;;;5089829;27;45482;-76
2022/07/11 11:41:51;;;;;;;;;1.00;1.00;;;;;;;;5091399;27;45283;-75
2022/07/11 11:44:17;;;;;;;;;2.00;1.00;;;;;;;;5094394;27;46000;-75
2022/07/11 11:46:42;;;;;;;;;1.00;1.00;;;;;;;;5092156;27;45589;-75
2022/07/11 11:49:07;;;;;;;;;1.00;1.00;;;;;;;;5093857;27;45451;-75
2022/07/11 11:51:32;;;;;;;;;1.00;1.00;;;;;;;;5092500;27;45458;-75
2022/07/11 11:54:02;;;;;;;;;0.67;0.67;;;;;;;;5094319;27;46946;-75
2022/07/11 11:56:34;;;;;;;;;2.00;1.00;;;;;;;;5092955;27;45544;-76
2022/07/11 11:59:03;;;;;;;;;1.00;1.00;;;;;;;;5091904;27;45379;-75
2022/07/11 12:01:30;;;;;;;;;1.00;1.00;;;;;;;;5092292;27;45232;-75
2022/07/11 12:03:59;;;;;;;;;1.00;1.00;;;;;;;;5091491;27;45556;-75
2022/07/11 12:06:26;;;;;;;;;1.00;1.00;;;;;;;;5092597;27;45576;-75
2022/07/11 12:09:02;;;;;;;;;1.33;1.33;;;;;;;;5094887;27;45401;-75
2022/07/11 12:11:27;;;;;;;;;2.33;2.33;;;;;;;;5092295;27;45381;-75
2022/07/11 12:14:00;;;;;;;;;1.67;1.67;;;;;;;;5092105;27;45437;-75
2022/07/11 12:16:44;;;;;;;;;2.00;2.00;;;;;;;;5093889;27;45420;-75
2022/07/11 12:19:09;;;;;;;;;0.33;0.33;;;;;;;;5091553;27;45323;-75
2022/07/11 12:21:35;;;;;;;;;0.67;0.67;;;;;;;;5091937;27;45545;-74
2022/07/11 12:24:02;;;;;;;;;1.33;1.33;;;;;;;;5093758;27;46509;-75
2022/07/11 12:26:29;;;;;;;;;1.33;1.33;;;;;;;;5093252;27;45455;-75
2022/07/11 12:29:19;;;;;;;;;1.00;1.00;;;;;;;;5091875;27;45280;-75
2022/07/11 12:31:48;;;;;;;;;2.00;1.00;;;;;;;;5091430;27;45618;-75
2022/07/11 12:34:14;;;;;;;;;0.33;0.33;;;;;;;;5091484;27;46174;-75
2022/07/11 12:36:39;;;;;;;;;1.00;1.00;;;;;;;;5091200;27;45444;-75
2022/07/11 12:39:05;;;;;;;;;1.33;1.33;;;;;;;;5094041;27;45396;-74
2022/07/11 12:41:31;;;;;;;;;1.00;1.00;;;;;;;;5093241;27;45505;-75
2022/07/11 12:46:40;;;;;;;;;1.00;1.00;;;;;;;;5091366;27;45461;-75
2022/07/11 12:49:06;;;;;;;;;1.00;1.00;;;;;;;;5091918;27;51047;-75
2022/07/11 12:51:39;;;;;;;;;2.00;2.00;;;;;;;;5091591;27;45533;-75
2022/07/11 12:54:05;;;;;;;;;0.00;0.00;;;;;;;;5093369;27;45708;-75
2022/07/11 12:56:31;;;;;;;;;1.00;1.00;;;;;;;;5092708;27;45417;-75
2022/07/11 12:58:56;;;;;;;;;2.00;2.00;;;;;;;;5090859;27;45756;-75
2022/07/11 13:01:21;;;;;;;;;0.33;0.33;;;;;;;;5091533;27;45448;-74
2022/07/11 13:03:47;;;;;;;;;2.00;2.00;;;;;;;;5093034;27;46464;-75
2022/07/11 13:06:14;;;;;;;;;1.00;1.00;;;;;;;;5093815;27;45481;-75
2022/07/11 13:08:44;;;;;;;;;0.67;0.67;;;;;;;;5093614;27;45427;-75
2022/07/11 13:11:13;;;;;;;;;1.00;1.00;;;;;;;;5091164;27;45554;-75
2022/07/11 13:13:39;;;;;;;;;1.00;1.00;;;;;;;;5091017;27;46378;-75
2022/07/11 13:16:05;;;;;;;;;1.00;1.00;;;;;;;;5091219;27;45260;-75
2022/07/11 13:18:31;;;;;;;;;1.00;1.00;;;;;;;;5091473;27;45478;-75
2022/07/11 13:20:56;;;;;;;;;1.33;1.00;;;;;;;;5093833;27;45542;-75
2022/07/11 13:23:21;;;;;;;;;1.00;1.00;;;;;;;;5093011;27;47023;-75
2022/07/11 13:25:47;;;;;;;;;0.00;0.00;;;;;;;;5094530;27;45507;-75
2022/07/11 13:28:13;;;;;;;;;1.00;1.00;;;;;;;;5094935;27;45417;-75
2022/07/11 13:30:39;;;;;;;;;1.00;1.00;;;;;;;;5094694;27;45363;-75
2022/07/11 13:33:04;;;;;;;;;0.67;0.67;;;;;;;;5096556;27;45439;-75
2022/07/11 13:35:29;;;;;;;;;1.00;1.00;;;;;;;;5095792;27;45440;-75
2022/07/11 13:37:54;;;;;;;;;0.00;0.00;;;;;;;;5093992;27;45443;-75
2022/07/11 13:40:20;;;;;;;;;1.00;1.00;;;;;;;;5094791;27;45599;-75
2022/07/11 13:42:48;;;;;;;;;0.67;0.67;;;;;;;;5094313;27;46284;-75
2022/07/11 13:45:15;;;;;;;;;1.00;1.00;;;;;;;;5095223;27;45491;-75
2022/07/11 13:47:40;;;;;;;;;2.00;2.00;;;;;;;;5097106;27;45345;-76
2022/07/11 13:50:06;;;;;;;;;1.00;1.00;;;;;;;;5094237;27;45554;-75
2022/07/11 13:52:31;;;;;;;;;1.33;1.33;;;;;;;;5093975;27;47355;-75
2022/07/11 13:54:57;;;;;;;;;2.00;0.00;;;;;;;;5094112;27;45381;-75
2022/07/11 13:57:22;;;;;;;;;1.00;1.00;;;;;;;;5094099;27;45351;-75
2022/07/11 13:59:48;;;;;;;;;1.33;1.00;;;;;;;;5097991;27;45534;-75
2022/07/11 14:02:13;;;;;;;;;1.00;1.00;;;;;;;;5093715;27;45406;-75
2022/07/11 14:04:38;;;;;;;;;1.67;1.67;;;;;;;;5093936;27;46201;-75
2022/07/11 14:07:04;;;;;;;;;0.67;0.67;;;;;;;;5093702;27;45448;-75
2022/07/11 14:09:29;;;;;;;;;1.00;1.00;;;;;;;;5096195;27;45404;-75
2022/07/11 14:11:54;;;;;;;;;1.00;1.00;;;;;;;;5097099;27;45586;-74
2022/07/11 14:14:20;;;;;;;;;1.00;1.00;;;;;;;;5094598;27;45474;-75
2022/07/11 14:16:46;;;;;;;;;1.00;1.00;;;;;;;;5093790;27;51336;-75
2022/07/11 14:19:11;;;;;;;;;1.00;1.00;;;;;;;;5093885;27;45575;-75
2022/07/11 14:21:37;;;;;;;;;1.00;1.00;;;;;;;;5093494;27;46317;-75
2022/07/11 14:24:02;;;;;;;;;1.00;1.00;;;;;;;;5095918;27;45373;-75
2022/07/11 14:26:28;;;;;;;;;0.67;0.67;;;;;;;;5095259;27;45394;-75
2022/07/11 14:28:53;;;;;;;;;1.67;1.67;;;;;;;;5096192;27;45419;-75
2022/07/11 14:31:18;;;;;;;;;0.00;0.00;;;;;;;;5101762;27;46431;-75
2022/07/11 14:33:44;;;;;;;;;1.00;1.00;;;;;;;;5093068;27;45596;-75
2022/07/11 14:36:09;;;;;;;;;1.00;1.00;;;;;;;;5094576;27;45314;-75
2022/07/11 14:38:34;;;;;;;;;1.00;1.00;;;;;;;;5097293;27;45492;-75
2022/07/11 14:41:00;;;;;;;;;1.00;1.00;;;;;;;;5092889;27;45653;-75
2022/07/11 14:43:27;;;;;;;;;0.33;0.33;;;;;;;;5093450;27;45373;-75
2022/07/11 14:45:53;;;;;;;;;1.00;1.00;;;;;;;;5093354;27;45410;-75
2022/07/11 14:48:18;;;;;;;;;1.00;1.00;;;;;;;;5093870;27;45456;-76
2022/07/11 14:50:43;;;;;;;;;0.67;0.67;;;;;;;;5096378;27;46045;-76
2022/07/11 14:53:08;;;;;;;;;0.33;0.33;;;;;;;;5093031;27;45472;-75
2022/07/11 14:55:34;;;;;;;;;1.00;1.00;;;;;;;;5092801;27;45535;-75
2022/07/11 14:57:59;;;;;;;;;1.00;1.00;;;;;;;;5092951;27;45356;-75